»·PEaware :: UAL225 KBUR-KLAS

UAL225 :: KBUR-KLAS

FLIGHT INFORMATION

Flight Status: Arrived
Operator:
United Airlines
More flights by this operator :: More flights under this callsign
Pilot: Anonymous 20192 (20192)
Aircraft: BOEING 727-100
(B721)
More flights by this aircraft type
Origin: KBUR Bob Hope-Burbank
United States
Destination: KLAS McCarran Intl
United States
More flights between these airports :: More routes between these airports
Route: +VNY3 DAG CLARR4
File this flight plan on PilotEdge
Remarks:
Altitude:
(Current/Filed)
29,000ft
Speed:
(Current/Filed)
500kts
Departed: 06-Oct-18 02:56 PM
Arrived: 06-Oct-18 03:40 PM
Distance/Time
Traveled:
194nm/0:44
Distance/Time
To Go:
Arrived

Flight Plot

Page will automatically refresh every two minutes.

Flight plan parsing failed; only flown route is shown


Map Options




Map Legend


Flown Route
Filed Route
Departure Airport
Arrival Airport
Navaid (VOR, NDB)
Fix

Horizontal Profiles

Position Reports

Time Latitude Longitude Heading Altitude Ground
Speed
06-Oct-18 14:02 34.196857 -118.352396 180 789ft 0kts
06-Oct-18 14:03 34.196857 -118.352396 180 789ft 0kts
06-Oct-18 14:04 34.196857 -118.352396 180 789ft 0kts
06-Oct-18 14:05 34.196857 -118.352396 180 789ft 0kts
06-Oct-18 14:06 34.196857 -118.352396 180 789ft 0kts
06-Oct-18 14:07 34.196857 -118.352396 180 789ft 0kts
06-Oct-18 14:08 34.196857 -118.352396 180 789ft 0kts
06-Oct-18 14:09 34.196857 -118.352396 180 789ft 0kts
06-Oct-18 14:10 34.196857 -118.352396 180 789ft 0kts
06-Oct-18 14:11 34.196857 -118.352396 180 789ft 0kts
06-Oct-18 14:12 34.196857 -118.352396 180 789ft 0kts
06-Oct-18 14:13 34.196857 -118.352396 180 789ft 0kts
06-Oct-18 14:14 34.196857 -118.352396 180 789ft 0kts
06-Oct-18 14:15 34.196857 -118.352396 180 789ft 0kts
06-Oct-18 14:16 34.196857 -118.352396 180 789ft 0kts
06-Oct-18 14:17 34.196857 -118.352396 180 789ft 0kts
06-Oct-18 14:18 34.196857 -118.352396 180 789ft 0kts
06-Oct-18 14:19 34.196857 -118.352396 180 789ft 0kts
06-Oct-18 14:20 34.196857 -118.352396 180 789ft 0kts
06-Oct-18 14:21 34.196857 -118.352396 180 789ft 0kts
06-Oct-18 14:22 34.196857 -118.352396 180 789ft 0kts
06-Oct-18 14:23 34.196857 -118.352396 180 789ft 0kts
06-Oct-18 14:24 34.196857 -118.352396 180 789ft 0kts
06-Oct-18 14:25 34.196857 -118.352396 180 789ft 0kts
06-Oct-18 14:26 34.196857 -118.352396 180 789ft 0kts
06-Oct-18 14:27 34.196857 -118.352396 180 789ft 0kts
06-Oct-18 14:28 34.196857 -118.352396 180 789ft 0kts
06-Oct-18 14:29 34.196857 -118.352396 180 789ft 0kts
06-Oct-18 14:30 34.196857 -118.352396 180 789ft 0kts
06-Oct-18 14:31 34.196857 -118.352396 180 789ft 0kts
06-Oct-18 14:32 34.196857 -118.352396 180 789ft 0kts
06-Oct-18 14:33 34.196857 -118.352396 180 789ft 0kts
06-Oct-18 14:34 34.196857 -118.352396 180 789ft 0kts
06-Oct-18 14:35 34.196857 -118.352396 180 789ft 0kts
06-Oct-18 14:36 34.196857 -118.352396 180 789ft 0kts
06-Oct-18 14:37 34.196857 -118.352396 180 789ft 0kts
06-Oct-18 14:38 34.196857 -118.352396 180 789ft 0kts
06-Oct-18 14:39 34.196857 -118.352396 180 789ft 0kts
06-Oct-18 14:40 34.196857 -118.352396 180 789ft 0kts
06-Oct-18 14:41 34.196857 -118.352396 180 789ft 0kts
06-Oct-18 14:42 34.196857 -118.352396 180 789ft 0kts
06-Oct-18 14:43 34.196857 -118.352396 180 789ft 0kts
06-Oct-18 14:44 34.196898 -118.352397 182 789ft 2kts
06-Oct-18 14:45 34.197168 -118.351804 269 789ft 1kts
06-Oct-18 14:46 34.197168 -118.351802 269 789ft 0kts
06-Oct-18 14:47 34.197168 -118.351802 269 789ft 0kts
06-Oct-18 14:48 34.197168 -118.351802 269 789ft 0kts
06-Oct-18 14:49 34.197168 -118.351802 269 789ft 0kts
06-Oct-18 14:50 34.197219 -118.353847 282 789ft 14kts
06-Oct-18 14:51 34.202214 -118.356311 347 789ft 17kts
06-Oct-18 14:52 34.206208 -118.357403 347 789ft 17kts
06-Oct-18 14:53 34.210469 -118.358579 347 789ft 13kts
06-Oct-18 14:54 34.211537 -118.359024 316 789ft 0kts
06-Oct-18 14:55 34.211537 -118.359024 316 789ft 0kts
06-Oct-18 14:56 34.211537 -118.359024 316 789ft 0kts
06-Oct-18 14:57 34.211178 -118.360150 167 789ft 22kts
06-Oct-18 14:58 34.177284 -118.356246 204 2213ft 190kts
06-Oct-18 14:59 34.134411 -118.405295 225 3973ft 240kts
06-Oct-18 15:00 34.104508 -118.471942 284 4416ft 263kts
06-Oct-18 15:01 34.162218 -118.508078 351 6866ft 286kts
06-Oct-18 15:02 34.234463 -118.513898 352 9791ft 289kts
06-Oct-18 15:03 34.304218 -118.518915 346 12174ft 295kts
06-Oct-18 15:04 34.385019 -118.502652 40 14023ft 378kts
06-Oct-18 15:05 34.436095 -118.389915 54 14030ft 410kts
06-Oct-18 15:06 34.496360 -118.282725 49 14711ft 393kts
06-Oct-18 15:07 34.556892 -118.183664 47 17975ft 398kts
06-Oct-18 15:08 34.614367 -118.073612 61 20395ft 424kts
06-Oct-18 15:09 34.646483 -117.939352 77 22441ft 450kts
06-Oct-18 15:10 34.663349 -117.786030 77 22902ft 502kts
06-Oct-18 15:11 34.685305 -117.638264 61 25577ft 472kts
06-Oct-18 15:12 34.729004 -117.490870 64 27097ft 487kts
06-Oct-18 15:13 34.769226 -117.338625 66 28449ft 499kts
06-Oct-18 15:14 34.805678 -117.194574 66 28844ft 528kts
06-Oct-18 15:15 34.848434 -117.027749 68 28788ft 564kts
06-Oct-18 15:16 34.893169 -116.851988 69 28772ft 581kts
06-Oct-18 15:17 34.938012 -116.673826 69 28759ft 524kts
06-Oct-18 15:18 34.978582 -116.516844 60 28760ft 483kts
06-Oct-18 15:19 35.061076 -116.429121 28 27864ft 450kts
06-Oct-18 15:20 35.152054 -116.334600 39 25797ft 458kts
06-Oct-18 15:21 35.228922 -116.239017 41 23855ft 442kts
06-Oct-18 15:22 35.300982 -116.147299 40 23776ft 388kts
06-Oct-18 15:23 35.375618 -116.052074 41 22985ft 410kts
06-Oct-18 15:24 35.451032 -115.955250 41 21295ft 399kts
06-Oct-18 15:25 35.524535 -115.860517 42 19457ft 386kts
06-Oct-18 15:26 35.591704 -115.775552 40 16330ft 368kts
06-Oct-18 15:27 35.658146 -115.694891 41 14572ft 355kts
06-Oct-18 15:28 35.725744 -115.610433 42 13032ft 339kts
06-Oct-18 15:29 35.779346 -115.542631 42 12353ft 331kts
06-Oct-18 15:30 35.854392 -115.522704 356 11027ft 275kts
06-Oct-18 15:31 35.933980 -115.526522 356 11030ft 307kts
06-Oct-18 15:32 36.014229 -115.530270 358 10998ft 278kts
06-Oct-18 15:33 36.052559 -115.460340 102 11097ft 318kts
06-Oct-18 15:34 36.034009 -115.354069 96 11090ft 298kts
06-Oct-18 15:35 36.024730 -115.264932 93 8293ft 281kts
06-Oct-18 15:36 36.018352 -115.185869 90 8018ft 223kts
06-Oct-18 15:37 36.002126 -115.116189 147 6772ft 246kts
06-Oct-18 15:38 35.951935 -115.145565 251 5066ft 243kts
06-Oct-18 15:39 35.973650 -115.204486 356 4655ft 227kts
06-Oct-18 15:40 36.031969 -115.195397 26 3473ft 204kts
06-Oct-18 15:41 36.071128 -115.172690 22 2392ft 125kts
06-Oct-18 15:42 36.090947 -115.161421 22 2127ft 35kts
06-Oct-18 15:43 36.093399 -115.158741 116 2110ft 0kts
06-Oct-18 15:44 36.091498 -115.155373 198 2106ft 12kts
06-Oct-18 15:45 36.087428 -115.157688 205 2124ft 18kts
06-Oct-18 15:46 36.085463 -115.155184 110 2121ft 1kts
06-Oct-18 15:47 36.085442 -115.155091 106 2121ft 0kts
06-Oct-18 15:48 36.085442 -115.155091 106 2121ft 0kts

Navigation Log

Ident Type
Flight plan parsing failed, navigation log unavailable